Aérodrome :
LOGIN :

S'inscrire | Disclaimer

   EN    FR    IT 

 










Légende :    VFR   VFR Marginal   IFR   IFR Intensif   IFR Très Intensif
Visi : 
Plafond : 
>= 8 km
>= 3000ft
5 à 8 km
1000 à 3000 ft
1500m à 5 km
500 à 1000 ft
800 à 1500m
200 à 500 ft
< 800m
< 200 ft
Symboles :   Orages  Brouillard  Fortes neiges  Fortes précipitations  Vent > 20 kt
SIGMETs :   Divers  Orages  Givrage  Turbulence  Onde Orograph.  Cendres Volcan.







- Altitude de l'aérodrome : 461 ft
- Code IATA : WIE


ETOU - Wiesbaden Army

DERNIER METAR :
  • 170856Z AUTO 00000KT 5000 HZ CLR 16/11 A3011 RMK AO2 SLP196 T01550107 52004 $

METARs EXPIRÉS :
  • 170756Z AUTO 00000KT 6000 HZ CLR 13/10 A3011 RMK AO2 SLP197 T01340102 $
  • 170656Z AUTO 00000KT 5000 BR CLR 11/09 A3011 RMK AO2 SLP198 T01060090 $
  • 170556Z AUTO 00000KT 6000 BR CLR 09/07 A3010 RMK AO2 SLP194 T00880074 10125 20081 50003 $

TAF TAF ETOU
Valide du 17 à 03h jusqu'au 18 à 09h UTC


170301Z 1703/1809 VRB06KT 8000 BR FEW150 QNH3006INS
BECMG 1707/1708 VRB06KT 9999 NSW BKN180 QNH3009INS
BECMG 1802/1803 VRB06KT 8000 BR BKN180 QNH3012INS
BECMG 1808/1809 02009KT 9999 NSW FEW030 BKN200 QNH3018INS TX23/1714Z TN06/1705Z
Pas de NOTAMs connus pour ce terrain.



MET'MAP, la Météo Aéronautique d'un coup d'oeil ! - Copyright ORBIFLY Décembre 2007 - Disclaimer

ORBIFLY MET'MAP TEAM :

Programmation & Développement : Alexandra Zaïnal
Conception & Développement : Baudouin d'Aumeries
Co-Programmation & Développement : Marc-Olivier Méhu
Soutien technique & logistique : Manuel Goepfert

Contact : metmap@orbifly.com




SOURCES & CREDITS :

   NOAA